Greenough, Montana
Current Conditions -  °F | °C
As of 11:53 PM on Saturday 22 Nov 2014 (Local Time) from KMSO Reporting Station
Overcast Overcast  
Wind Chill: 30°   Ceiling: 4900
Heat Index: 36°   Visibility: 10mi
Dew Point: 27°   Wind: 7mph
Humidity: 70%   Direction: 350°N
Pressure: 29.85"   Gusts: NA
Location:  47.1°N, 113.36°W
Report Text: KMSO 230653Z AUTO 35006KT 10SM BKN049 OVC060 02/M03 A2985 RMK AO2 SLP125 T00221028 400670000
Loading
Personal Weather Stations






























Interactive Weather Map New forecast layout! Learn more

10-Day Weather Forecast

Advertisements
Track Severe Weather on mobile